createdAt,value
2023-04-04T00:00:45.101Z,53.50
2023-04-04T00:03:13.076Z,53.80
2023-04-04T00:05:41.624Z,54.10
2023-04-04T00:08:09.488Z,54.30
2023-04-04T00:10:37.524Z,54.70
2023-04-04T00:13:07.670Z,55.00
2023-04-04T00:15:36.457Z,55.30
2023-04-04T00:18:04.886Z,55.60
2023-04-04T00:20:33.934Z,55.90
2023-04-04T00:23:01.811Z,56.20
2023-04-04T00:25:29.760Z,56.50
2023-04-04T00:28:00.765Z,56.90
2023-04-04T00:30:31.343Z,57.30
2023-04-04T00:32:59.307Z,57.70
2023-04-04T00:35:27.359Z,58.00
2023-04-04T00:37:55.227Z,58.30
2023-04-04T00:40:23.727Z,58.60
2023-04-04T00:42:51.830Z,59.00
2023-04-04T00:45:19.956Z,59.30
2023-04-04T00:47:51.093Z,59.70
2023-04-04T00:50:19.117Z,60.10
2023-04-04T00:52:47.174Z,60.60
2023-04-04T00:55:15.328Z,61.20
2023-04-04T00:57:43.375Z,61.70
2023-04-04T01:00:13.231Z,62.30
2023-04-04T01:02:41.301Z,62.90
2023-04-04T01:05:11.126Z,63.50
2023-04-04T01:07:39.503Z,64.50
2023-04-04T01:10:08.349Z,64.50
2023-04-04T01:12:38.126Z,64.90
2023-04-04T01:15:06.511Z,65.50
2023-04-04T01:17:34.943Z,66.00
2023-04-04T01:20:08.747Z,66.50
2023-04-04T01:22:39.762Z,67.00
2023-04-04T01:25:08.997Z,67.50
2023-04-04T01:27:38.976Z,68.00
2023-04-04T01:30:08.861Z,68.70
2023-04-04T01:32:44.073Z,69.40
2023-04-04T01:35:23.245Z,70.10
2023-04-04T01:37:59.279Z,70.70
2023-04-04T01:40:35.018Z,71.20
2023-04-04T01:43:04.972Z,71.70
2023-04-04T01:45:33.215Z,72.20
2023-04-04T01:48:01.405Z,72.80
2023-04-04T01:50:29.538Z,73.50
2023-04-04T01:52:57.439Z,73.90
2023-04-04T01:55:26.083Z,74.40
2023-04-04T01:57:53.942Z,74.80
2023-04-04T02:00:23.185Z,75.20
2023-04-04T02:02:51.605Z,75.60
2023-04-04T02:05:19.668Z,76.20
2023-04-04T02:07:50.551Z,76.70
2023-04-04T02:10:18.508Z,77.10
2023-04-04T02:12:46.737Z,77.60
2023-04-04T02:15:15.059Z,78.10
2023-04-04T02:17:48.621Z,78.60
2023-04-04T02:20:19.293Z,79.00
2023-04-04T02:22:52.952Z,79.30
2023-04-04T02:25:21.193Z,79.60
2023-04-04T02:27:54.101Z,79.90
2023-04-04T02:30:22.000Z,80.20
2023-04-04T02:32:51.213Z,80.50
2023-04-04T02:35:19.297Z,80.80
2023-04-04T02:37:48.143Z,81.20
2023-04-04T02:40:16.375Z,81.40
2023-04-04T02:42:45.010Z,81.70
2023-04-04T02:45:14.487Z,82.10
2023-04-04T02:47:43.361Z,82.50
2023-04-04T02:50:13.043Z,82.90
2023-04-04T02:52:40.890Z,83.20
2023-04-04T02:55:09.880Z,83.60
2023-04-04T02:57:37.761Z,83.90
2023-04-04T03:00:07.011Z,84.30
2023-04-04T03:02:35.325Z,84.60
2023-04-04T03:05:03.426Z,85.70
2023-04-04T03:07:32.779Z,85.20
2023-04-04T03:10:00.815Z,85.60
2023-04-04T03:12:28.706Z,85.90
2023-04-04T03:14:57.720Z,86.20
2023-04-04T03:17:26.757Z,87.40
2023-04-04T03:19:54.705Z,87.00
2023-04-04T03:22:22.776Z,87.40
2023-04-04T03:24:52.446Z,87.70
2023-04-04T03:27:20.372Z,88.00
2023-04-04T03:29:48.225Z,88.40
2023-04-04T03:32:16.228Z,88.80
2023-04-04T03:34:44.682Z,89.20
2023-04-04T03:37:12.577Z,89.80
2023-04-04T03:39:40.808Z,90.10
2023-04-04T03:42:10.074Z,90.30
2023-04-04T03:44:41.051Z,90.50
2023-04-04T03:47:09.064Z,90.70
2023-04-04T03:49:37.046Z,90.90
2023-04-04T03:52:05.280Z,91.00
2023-04-04T03:54:33.126Z,91.20
2023-04-04T03:57:01.255Z,91.40
2023-04-04T03:59:30.802Z,91.60
2023-04-04T04:01:58.894Z,91.70
2023-04-04T04:04:26.884Z,91.80
2023-04-04T04:06:54.827Z,91.90
2023-04-04T04:09:22.785Z,92.00
2023-04-04T04:11:50.659Z,92.20
2023-04-04T04:14:18.986Z,92.40
2023-04-04T04:16:48.366Z,92.50
2023-04-04T04:19:16.559Z,92.60
2023-04-04T04:21:44.822Z,92.70
2023-04-04T04:24:12.817Z,92.90
2023-04-04T04:26:40.800Z,92.90
2023-04-04T04:29:08.870Z,93.10
2023-04-04T04:31:36.843Z,93.20
2023-04-04T04:34:08.609Z,93.30
2023-04-04T04:36:36.901Z,93.50
2023-04-04T04:39:05.019Z,93.50
2023-04-04T04:41:33.127Z,93.70
2023-04-04T04:44:00.975Z,93.80
2023-04-04T04:46:28.975Z,93.90
2023-04-04T04:48:56.992Z,94.00
2023-04-04T04:51:27.447Z,94.20
2023-04-04T04:53:55.428Z,94.30
2023-04-04T04:56:23.403Z,94.50
2023-04-04T04:58:52.492Z,94.60
2023-04-04T05:01:20.787Z,94.70
2023-04-04T05:03:49.470Z,94.80
2023-04-04T05:06:18.654Z,95.00
2023-04-04T05:08:48.016Z,95.10
2023-04-04T05:11:15.941Z,95.20
2023-04-04T05:13:44.905Z,95.30
2023-04-04T05:16:13.100Z,95.40
2023-04-04T05:18:41.129Z,95.50
2023-04-04T05:21:09.269Z,95.50
2023-04-04T05:23:37.381Z,95.60
2023-04-04T05:26:07.493Z,95.60
2023-04-04T05:28:35.943Z,95.70
2023-04-04T05:31:03.869Z,95.80
2023-04-04T05:33:31.763Z,95.80
2023-04-04T05:36:01.120Z,95.90
2023-04-04T05:38:29.513Z,96.00
2023-04-04T05:40:57.482Z,96.10
2023-04-04T05:43:27.225Z,96.10
2023-04-04T05:45:55.135Z,96.20
2023-04-04T05:48:23.056Z,96.20
2023-04-04T05:50:51.089Z,96.20
2023-04-04T05:53:19.028Z,96.20
2023-04-04T05:55:46.931Z,96.30
2023-04-04T05:58:14.832Z,96.30
2023-04-04T06:00:44.198Z,96.30
2023-04-04T06:03:12.721Z,96.30
2023-04-04T06:05:40.987Z,96.30
2023-04-04T06:08:09.439Z,96.30
2023-04-04T06:10:37.608Z,96.30
2023-04-04T06:13:06.035Z,96.30
2023-04-04T06:15:33.959Z,96.30
2023-04-04T06:18:04.718Z,96.20
2023-04-04T06:20:32.653Z,96.20
2023-04-04T06:23:03.952Z,96.10
2023-04-04T06:25:32.232Z,96.00
2023-04-04T06:28:00.726Z,95.90
2023-04-04T06:30:28.684Z,95.80
2023-04-04T06:32:56.653Z,95.80
2023-04-04T06:35:25.994Z,95.70
2023-04-04T06:37:56.245Z,95.60
2023-04-04T06:40:24.322Z,95.50
2023-04-04T06:42:55.092Z,95.40
2023-04-04T06:45:23.562Z,95.30
2023-04-04T06:47:53.558Z,95.20
2023-04-04T06:52:52.692Z,95.00
2023-04-04T06:55:20.677Z,94.80
2023-04-04T06:57:48.594Z,94.70
2023-04-04T07:00:17.161Z,94.60
2023-04-04T07:02:45.343Z,94.50
2023-04-04T07:05:14.379Z,94.30
2023-04-04T07:07:42.317Z,94.20
2023-04-04T07:10:12.143Z,93.90
2023-04-04T07:12:40.029Z,93.70
2023-04-04T07:15:09.213Z,93.60
2023-04-04T07:17:38.997Z,93.50
2023-04-04T07:20:08.418Z,93.40
2023-04-04T07:22:38.480Z,93.30
2023-04-04T07:25:07.566Z,93.10
2023-04-04T07:27:37.050Z,92.90
2023-04-04T07:30:05.367Z,92.70
2023-04-04T07:32:33.237Z,92.60
2023-04-04T07:35:01.366Z,92.50
2023-04-04T07:37:29.314Z,92.30
2023-04-04T07:39:57.245Z,92.10
2023-04-04T07:42:27.833Z,91.80
2023-04-04T07:44:57.113Z,91.40
2023-04-04T07:47:25.310Z,91.30
2023-04-04T07:49:53.218Z,91.00
2023-04-04T07:52:21.476Z,90.80
2023-04-04T07:54:49.773Z,90.50
2023-04-04T07:57:17.667Z,90.20
2023-04-04T07:59:46.001Z,90.10
2023-04-04T08:02:15.289Z,90.20
2023-04-04T08:04:43.237Z,89.50
2023-04-04T08:07:11.283Z,88.80
2023-04-04T08:09:39.182Z,88.10
2023-04-04T08:12:07.844Z,87.40
2023-04-04T08:14:35.819Z,86.70
2023-04-04T08:17:03.694Z,86.20
2023-04-04T08:19:32.973Z,85.20
2023-04-04T08:22:01.541Z,85.00
2023-04-04T08:24:30.723Z,84.30
2023-04-04T08:27:05.226Z,82.90
2023-04-04T08:29:34.503Z,82.50
2023-04-04T08:32:02.497Z,81.40
2023-04-04T08:34:32.051Z,80.50
2023-04-04T08:37:00.588Z,79.20
2023-04-04T08:39:28.489Z,78.00
2023-04-04T08:42:03.475Z,76.10
2023-04-04T08:44:32.589Z,75.40
2023-04-04T08:47:01.625Z,74.70
2023-04-04T08:49:35.005Z,74.40
2023-04-04T08:52:04.737Z,73.90
2023-04-04T08:54:36.198Z,73.50
2023-04-04T08:57:04.342Z,73.40
2023-04-04T08:59:32.798Z,73.20
2023-04-04T09:02:06.241Z,72.50
2023-04-04T09:04:36.443Z,72.50
2023-04-04T09:07:05.736Z,71.10
2023-04-04T09:09:34.398Z,70.50
2023-04-04T09:12:03.426Z,70.20
2023-04-04T09:14:32.374Z,69.50
2023-04-04T09:17:00.393Z,69.00
2023-04-04T09:19:28.494Z,68.30
2023-04-04T09:21:57.896Z,67.50
2023-04-04T09:24:26.467Z,66.60
2023-04-04T09:26:55.273Z,65.80
2023-04-04T09:29:23.310Z,65.30
2023-04-04T09:31:51.731Z,65.10
2023-04-04T09:34:21.744Z,64.50
2023-04-04T09:36:49.913Z,64.40
2023-04-04T09:39:23.182Z,63.60
2023-04-04T09:41:51.259Z,62.60
2023-04-04T09:44:19.352Z,61.30
2023-04-04T09:46:51.961Z,59.10
2023-04-04T09:49:22.759Z,52.80
2023-04-04T09:51:53.898Z,45.70
2023-04-04T09:54:29.722Z,36.70
2023-04-04T09:56:58.341Z,30.60
2023-04-04T09:59:26.478Z,25.70
2023-04-04T10:01:56.417Z,22.30
2023-04-04T10:04:27.256Z,19.20
2023-04-04T10:06:55.764Z,16.40
2023-04-04T10:09:24.234Z,14.10
2023-04-04T10:12:09.738Z,12.40
2023-04-04T10:14:37.882Z,10.40
2023-04-04T10:17:10.434Z,8.90
2023-04-04T10:19:39.338Z,7.90
2023-04-04T10:22:07.388Z,6.90
2023-04-04T10:24:35.631Z,6.20
2023-04-04T10:27:05.043Z,5.50
2023-04-04T10:29:33.887Z,4.90
2023-04-04T10:32:06.432Z,4.20
2023-04-04T10:34:42.181Z,4.00
2023-04-04T10:37:14.320Z,3.30
2023-04-04T10:39:47.597Z,2.80
2023-04-04T10:42:17.464Z,2.40
2023-04-04T10:44:46.974Z,2.00
2023-04-04T10:47:16.559Z,2.00
2023-04-04T10:49:46.247Z,1.90
2023-04-04T10:52:17.596Z,1.70
2023-04-04T10:54:47.840Z,1.20
2023-04-04T10:57:18.285Z,1.20
2023-04-04T10:59:59.695Z,1.00
2023-04-04T11:02:45.554Z,1.00
2023-04-04T11:05:16.031Z,1.00
2023-04-04T11:07:57.227Z,1.00
2023-04-04T11:10:37.177Z,1.00
2023-04-04T11:13:14.352Z,1.00
2023-04-04T11:15:55.802Z,1.00
2023-04-04T11:18:45.509Z,1.00
2023-04-04T11:21:18.360Z,1.00
2023-04-04T11:24:19.433Z,1.00
2023-04-04T11:26:48.640Z,1.00
2023-04-04T11:29:51.443Z,1.00
2023-04-04T11:32:34.628Z,1.00
2023-04-04T11:35:06.352Z,1.00
2023-04-04T11:37:44.596Z,1.00
2023-04-04T11:40:13.949Z,1.80
2023-04-04T11:42:43.311Z,2.60
2023-04-04T11:45:19.142Z,3.60
2023-04-04T11:47:50.504Z,4.50
2023-04-04T11:50:20.798Z,5.70
2023-04-04T11:52:48.623Z,6.70
2023-04-04T11:55:17.653Z,7.00
2023-04-04T11:57:47.494Z,7.70
2023-04-04T12:00:29.993Z,8.40
2023-04-04T12:02:59.710Z,9.30
2023-04-04T12:05:29.078Z,10.00
2023-04-04T12:07:57.348Z,10.70
2023-04-04T12:10:25.620Z,11.20
2023-04-04T12:12:56.977Z,11.80
2023-04-04T12:15:24.880Z,12.40
2023-04-04T12:17:52.766Z,12.60
2023-04-04T12:20:25.034Z,13.00
2023-04-04T12:22:53.324Z,13.50
2023-04-04T12:25:23.907Z,14.00
2023-04-04T12:27:53.491Z,14.30
2023-04-04T12:30:22.542Z,14.40
2023-04-04T12:32:51.737Z,14.50
2023-04-04T12:35:19.807Z,14.90
2023-04-04T12:38:02.749Z,15.30
2023-04-04T12:40:33.203Z,15.50
2023-04-04T12:43:02.054Z,15.40
2023-04-04T12:45:30.716Z,15.50
2023-04-04T12:47:58.974Z,15.50
2023-04-04T12:50:29.393Z,15.60
2023-04-04T12:53:18.458Z,15.60
2023-04-04T12:55:52.040Z,15.60
2023-04-04T12:58:22.842Z,16.10
2023-04-04T13:00:53.509Z,16.30
2023-04-04T13:03:23.060Z,16.20
2023-04-04T13:05:52.438Z,16.10
2023-04-04T13:08:20.754Z,16.10
2023-04-04T13:11:04.833Z,16.10
2023-04-04T13:13:35.321Z,16.00
2023-04-04T13:16:04.398Z,15.90
2023-04-04T13:18:38.605Z,16.00
2023-04-04T13:21:08.589Z,16.00
2023-04-04T13:23:39.401Z,15.90
2023-04-04T13:26:10.120Z,15.50
2023-04-04T13:28:38.065Z,15.60
2023-04-04T13:31:06.982Z,15.50
2023-04-04T13:33:35.620Z,15.60
2023-04-04T13:36:03.694Z,15.60
2023-04-04T13:38:32.156Z,15.60
2023-04-04T13:41:00.570Z,15.60
2023-04-04T13:43:29.964Z,15.80
2023-04-04T13:45:58.004Z,15.50
2023-04-04T13:48:26.403Z,15.10
2023-04-04T13:50:55.408Z,15.00
2023-04-04T13:53:23.536Z,15.00
2023-04-04T13:58:22.760Z,14.70
2023-04-04T14:00:52.572Z,14.80
2023-04-04T14:03:20.752Z,14.60
2023-04-04T14:05:48.759Z,14.70
2023-04-04T14:08:16.914Z,14.70
2023-04-04T14:10:44.765Z,14.80
2023-04-04T14:13:12.744Z,15.10
2023-04-04T14:15:41.603Z,14.90
2023-04-04T14:18:12.182Z,14.70
2023-04-04T14:20:40.217Z,14.80
2023-04-04T14:23:08.621Z,14.80
2023-04-04T14:25:36.959Z,14.90
2023-04-04T14:28:04.857Z,14.90
2023-04-04T14:30:32.837Z,14.60
2023-04-04T14:33:00.854Z,14.30
2023-04-04T14:35:30.276Z,14.30
2023-04-04T14:37:58.100Z,14.30
2023-04-04T14:40:26.029Z,14.40
2023-04-04T14:42:53.924Z,14.10
2023-04-04T14:45:22.454Z,14.30
2023-04-04T14:47:55.310Z,14.00
2023-04-04T14:50:23.186Z,14.20
2023-04-04T14:52:52.967Z,14.30
2023-04-04T14:55:21.990Z,14.30
2023-04-04T14:58:02.097Z,14.30
2023-04-04T15:00:30.813Z,13.80
2023-04-04T15:02:59.364Z,13.80
2023-04-04T15:05:27.378Z,13.80
2023-04-04T15:07:56.699Z,13.60
2023-04-04T15:10:24.732Z,13.70
2023-04-04T15:12:52.614Z,13.70
2023-04-04T15:15:22.243Z,13.50
2023-04-04T15:17:51.978Z,13.30
2023-04-04T15:20:19.982Z,12.70
2023-04-04T15:22:47.880Z,13.10
2023-04-04T15:25:17.236Z,13.20
2023-04-04T15:27:45.249Z,13.50
2023-04-04T15:30:14.798Z,13.80
2023-04-04T15:32:42.772Z,14.20
2023-04-04T15:35:18.136Z,14.40
2023-04-04T15:37:46.053Z,14.60
2023-04-04T15:40:14.098Z,14.80
2023-04-04T15:42:43.649Z,14.70
2023-04-04T15:45:13.195Z,14.90
2023-04-04T15:47:41.462Z,15.10
2023-04-04T15:50:11.069Z,15.10
2023-04-04T15:52:39.052Z,15.30
2023-04-04T15:55:12.532Z,15.50
2023-04-04T15:57:42.676Z,15.70
2023-04-04T16:00:14.069Z,15.70
2023-04-04T16:02:44.285Z,15.90
2023-04-04T16:05:12.419Z,16.10
2023-04-04T16:07:40.379Z,16.40
2023-04-04T16:10:09.438Z,16.80
2023-04-04T16:12:37.293Z,17.00
2023-04-04T16:15:06.989Z,17.30
2023-04-04T16:17:36.324Z,17.60
2023-04-04T16:20:04.487Z,17.80
2023-04-04T16:22:33.198Z,18.00
2023-04-04T16:25:01.167Z,18.30
2023-04-04T16:27:29.044Z,18.50
2023-04-04T16:29:56.932Z,18.70
2023-04-04T16:32:25.017Z,18.80
2023-04-04T16:34:54.366Z,19.10
2023-04-04T16:37:23.293Z,19.20
2023-04-04T16:39:52.038Z,19.40
2023-04-04T16:42:20.263Z,19.50
2023-04-04T16:44:48.191Z,19.60
2023-04-04T16:47:16.361Z,19.60
2023-04-04T16:49:44.763Z,19.80
2023-04-04T16:52:14.878Z,19.90
2023-04-04T16:54:43.218Z,19.90
2023-04-04T16:57:11.616Z,20.00
2023-04-04T16:59:39.592Z,20.20
2023-04-04T17:02:08.908Z,20.30
2023-04-04T17:04:39.652Z,20.30
2023-04-04T17:07:09.775Z,20.50
2023-04-04T17:09:39.160Z,20.70
2023-04-04T17:12:07.469Z,20.90
2023-04-04T17:14:35.755Z,20.90
2023-04-04T17:17:05.298Z,21.20
2023-04-04T17:19:35.212Z,21.30
2023-04-04T17:22:03.913Z,21.50
2023-04-04T17:24:31.889Z,21.60
2023-04-04T17:27:03.473Z,21.60
2023-04-04T17:29:31.331Z,21.70
2023-04-04T17:31:59.783Z,21.80
2023-04-04T17:34:28.142Z,21.90
2023-04-04T17:36:56.735Z,22.10
2023-04-04T17:39:24.852Z,22.20
2023-04-04T17:41:53.016Z,22.30
2023-04-04T17:44:22.943Z,22.40
2023-04-04T17:46:50.956Z,22.50
2023-04-04T17:49:19.996Z,22.60
2023-04-04T17:51:49.076Z,22.70
2023-04-04T17:54:17.548Z,22.90
2023-04-04T17:56:46.894Z,22.90
2023-04-04T17:59:16.435Z,23.00
2023-04-04T18:01:46.742Z,23.10
2023-04-04T18:04:14.722Z,23.30
2023-04-04T18:06:42.817Z,23.40
2023-04-04T18:09:11.108Z,23.50
2023-04-04T18:11:39.977Z,23.50
2023-04-04T18:14:08.526Z,23.60
2023-04-04T18:16:40.283Z,23.70
2023-04-04T18:19:11.238Z,23.80
2023-04-04T18:21:39.308Z,23.80
2023-04-04T18:24:10.976Z,24.00
2023-04-04T18:26:38.927Z,24.10
2023-04-04T18:29:07.181Z,24.10
2023-04-04T18:31:35.226Z,24.20
2023-04-04T18:34:03.322Z,24.30
2023-04-04T18:36:32.637Z,24.50
2023-04-04T18:39:01.120Z,24.60
2023-04-04T18:41:29.149Z,24.70
2023-04-04T18:43:57.195Z,24.70
2023-04-04T18:46:25.167Z,24.80
2023-04-04T18:48:53.137Z,24.90
2023-04-04T18:51:22.342Z,24.90
2023-04-04T18:53:53.002Z,25.00
2023-04-04T18:56:21.576Z,25.10
2023-04-04T18:58:49.748Z,25.10
2023-04-04T19:01:17.708Z,25.30
2023-04-04T19:03:47.480Z,25.30
2023-04-04T19:06:16.230Z,25.30
2023-04-04T19:08:44.917Z,25.40
2023-04-04T19:11:15.628Z,25.40
2023-04-04T19:13:43.640Z,25.50
2023-04-04T19:16:11.605Z,25.50
2023-04-04T19:18:39.531Z,25.50
2023-04-04T19:21:08.843Z,25.60
2023-04-04T19:23:38.094Z,25.60
2023-04-04T19:26:06.611Z,25.70
2023-04-04T19:28:36.489Z,25.70
2023-04-04T19:31:10.581Z,25.70
2023-04-04T19:33:39.144Z,25.90
2023-04-04T19:36:10.826Z,25.90
2023-04-04T19:38:40.783Z,26.00
2023-04-04T19:41:12.749Z,26.00
2023-04-04T19:43:44.996Z,26.10
2023-04-04T19:46:14.850Z,26.30
2023-04-04T19:48:45.835Z,26.30
2023-04-04T19:51:43.096Z,26.40
2023-04-04T19:54:15.875Z,26.50
2023-04-04T19:56:47.091Z,26.50
2023-04-04T19:59:53.631Z,26.60
2023-04-04T20:02:50.844Z,26.70
2023-04-04T20:05:48.648Z,26.80
2023-04-04T20:08:17.264Z,26.90
2023-04-04T20:10:45.521Z,26.90
2023-04-04T20:13:14.281Z,27.00
2023-04-04T20:16:01.869Z,27.00
2023-04-04T20:18:32.825Z,27.10
2023-04-04T20:21:03.762Z,27.20
2023-04-04T20:23:32.749Z,27.20
2023-04-04T20:26:08.237Z,27.30
2023-04-04T20:28:36.940Z,27.30
2023-04-04T20:31:12.039Z,27.40
2023-04-04T20:33:42.086Z,27.50
2023-04-04T20:36:31.298Z,28.10
2023-04-04T20:38:59.598Z,28.00
2023-04-04T20:41:27.827Z,27.90
2023-04-04T20:43:57.090Z,27.80
2023-04-04T20:46:26.458Z,27.80
2023-04-04T20:48:57.195Z,27.80
2023-04-04T20:51:30.893Z,27.80
2023-04-04T20:54:00.685Z,27.80
2023-04-04T20:56:47.540Z,27.80
2023-04-04T20:59:35.380Z,27.90
2023-04-04T21:02:11.776Z,27.90
2023-04-04T21:04:41.847Z,28.00
2023-04-04T21:07:09.839Z,28.00
2023-04-04T21:09:37.715Z,28.20
2023-04-04T21:12:07.775Z,28.20
2023-04-04T21:14:37.497Z,28.30
2023-04-04T21:17:07.708Z,28.40
2023-04-04T21:19:35.617Z,28.50
2023-04-04T21:22:07.711Z,28.60
2023-04-04T21:24:36.928Z,28.70
2023-04-04T21:27:07.602Z,28.70
2023-04-04T21:29:35.457Z,28.80
2023-04-04T21:32:03.885Z,28.90
2023-04-04T21:34:32.626Z,28.90
2023-04-04T21:37:02.905Z,28.90
2023-04-04T21:39:32.213Z,29.00
2023-04-04T21:42:03.260Z,29.00
2023-04-04T21:44:32.987Z,29.10
2023-04-04T21:47:00.898Z,29.20
2023-04-04T21:49:29.609Z,29.20
2023-04-04T21:51:57.524Z,29.30
2023-04-04T21:54:25.362Z,29.40
2023-04-04T21:56:54.862Z,29.50
2023-04-04T21:59:22.737Z,29.60
2023-04-04T22:01:51.759Z,29.70
2023-04-04T22:04:19.761Z,29.80
2023-04-04T22:06:47.659Z,29.90
2023-04-04T22:09:15.934Z,30.00
2023-04-04T22:11:45.283Z,30.00
2023-04-04T22:14:17.454Z,30.00
2023-04-04T22:16:45.915Z,30.10
2023-04-04T22:19:13.909Z,30.10
2023-04-04T22:21:48.029Z,30.30
2023-04-04T22:24:17.777Z,30.40
2023-04-04T22:26:46.477Z,30.60
2023-04-04T22:29:15.911Z,30.80
2023-04-04T22:31:43.940Z,30.90
2023-04-04T22:34:14.663Z,31.00
2023-04-04T22:36:43.736Z,31.20
2023-04-04T22:39:12.032Z,31.30
2023-04-04T22:41:39.914Z,31.50
2023-04-04T22:44:07.886Z,31.60
2023-04-04T22:46:37.041Z,31.70
2023-04-04T22:49:08.736Z,31.80
2023-04-04T22:51:43.990Z,32.10
2023-04-04T22:54:14.113Z,33.00
2023-04-04T22:56:42.232Z,32.50
2023-04-04T22:59:10.212Z,32.60
2023-04-04T23:01:39.732Z,32.80
2023-04-04T23:04:07.965Z,32.90
2023-04-04T23:06:38.408Z,33.10
2023-04-04T23:09:07.614Z,33.30
2023-04-04T23:11:35.587Z,33.40
2023-04-04T23:14:08.387Z,33.60
2023-04-04T23:16:36.481Z,33.80
2023-04-04T23:19:05.944Z,33.90
2023-04-04T23:21:33.957Z,34.10
2023-04-04T23:24:01.829Z,34.30
2023-04-04T23:26:29.784Z,34.40
2023-04-04T23:28:57.730Z,34.50
2023-04-04T23:31:25.790Z,34.60
2023-04-04T23:33:53.842Z,34.60
2023-04-04T23:36:23.179Z,34.70
2023-04-04T23:38:51.086Z,34.90
2023-04-04T23:41:18.986Z,35.20
2023-04-04T23:43:47.077Z,35.50
2023-04-04T23:46:15.452Z,35.80
2023-04-04T23:48:43.454Z,36.10
2023-04-04T23:51:11.652Z,36.90
2023-04-04T23:53:41.288Z,36.70
2023-04-04T23:56:09.353Z,37.00
2023-04-04T23:58:38.736Z,37.20
